sensor_id;sensor_type;location;lat;lon;timestamp;P1;durP1;ratioP1;P2;durP2;ratioP2
59649;SDS011;46162;57.568;25.814;2022-11-09T00:01:49;23.30;;;13.63;;
59649;SDS011;46162;57.568;25.814;2022-11-09T00:04:18;20.60;;;12.82;;
59649;SDS011;46162;57.568;25.814;2022-11-09T00:06:46;24.92;;;15.27;;
59649;SDS011;46162;57.568;25.814;2022-11-09T00:09:15;23.48;;;14.43;;
59649;SDS011;46162;57.568;25.814;2022-11-09T00:11:44;25.77;;;14.85;;
59649;SDS011;46162;57.568;25.814;2022-11-09T00:14:14;22.30;;;13.98;;
59649;SDS011;46162;57.568;25.814;2022-11-09T00:16:44;20.83;;;14.18;;
59649;SDS011;46162;57.568;25.814;2022-11-09T00:19:12;21.08;;;13.35;;
59649;SDS011;46162;57.568;25.814;2022-11-09T00:21:41;22.63;;;13.13;;
59649;SDS011;46162;57.568;25.814;2022-11-09T00:24:10;21.45;;;12.00;;
59649;SDS011;46162;57.568;25.814;2022-11-09T00:26:38;24.80;;;12.05;;
59649;SDS011;46162;57.568;25.814;2022-11-09T00:29:07;20.58;;;12.30;;
59649;SDS011;46162;57.568;25.814;2022-11-09T00:31:37;17.20;;;11.18;;
59649;SDS011;46162;57.568;25.814;2022-11-09T00:34:06;18.13;;;11.80;;
59649;SDS011;46162;57.568;25.814;2022-11-09T00:36:35;16.20;;;11.18;;
59649;SDS011;46162;57.568;25.814;2022-11-09T00:39:07;15.13;;;10.80;;
59649;SDS011;46162;57.568;25.814;2022-11-09T00:41:35;15.63;;;9.85;;
59649;SDS011;46162;57.568;25.814;2022-11-09T00:44:04;19.42;;;11.18;;
59649;SDS011;46162;57.568;25.814;2022-11-09T00:46:33;16.98;;;10.15;;
59649;SDS011;46162;57.568;25.814;2022-11-09T00:49:03;17.70;;;10.57;;
59649;SDS011;46162;57.568;25.814;2022-11-09T00:51:33;17.50;;;10.10;;
59649;SDS011;46162;57.568;25.814;2022-11-09T00:54:02;17.83;;;9.45;;
59649;SDS011;46162;57.568;25.814;2022-11-09T00:56:30;21.88;;;10.45;;
59649;SDS011;46162;57.568;25.814;2022-11-09T00:58:59;20.50;;;11.18;;
59649;SDS011;46162;57.568;25.814;2022-11-09T01:01:28;21.52;;;11.60;;
59649;SDS011;46162;57.568;25.814;2022-11-09T01:03:57;25.00;;;14.25;;
59649;SDS011;46162;57.568;25.814;2022-11-09T01:06:27;26.60;;;13.98;;
59649;SDS011;46162;57.568;25.814;2022-11-09T01:08:56;28.10;;;15.65;;
59649;SDS011;46162;57.568;25.814;2022-11-09T01:11:25;29.48;;;16.92;;
59649;SDS011;46162;57.568;25.814;2022-11-09T01:13:57;31.63;;;16.55;;
59649;SDS011;46162;57.568;25.814;2022-11-09T01:16:27;41.40;;;17.35;;
59649;SDS011;46162;57.568;25.814;2022-11-09T01:18:56;28.85;;;17.40;;
59649;SDS011;46162;57.568;25.814;2022-11-09T01:21:27;35.97;;;18.38;;
59649;SDS011;46162;57.568;25.814;2022-11-09T01:23:58;30.67;;;17.75;;
59649;SDS011;46162;57.568;25.814;2022-11-09T01:26:27;34.55;;;19.00;;
59649;SDS011;46162;57.568;25.814;2022-11-09T01:28:56;37.92;;;18.88;;
59649;SDS011;46162;57.568;25.814;2022-11-09T01:31:25;41.88;;;19.10;;
59649;SDS011;46162;57.568;25.814;2022-11-09T01:33:54;46.97;;;20.73;;
59649;SDS011;46162;57.568;25.814;2022-11-09T01:36:23;43.85;;;19.95;;
59649;SDS011;46162;57.568;25.814;2022-11-09T01:38:53;44.28;;;21.55;;
59649;SDS011;46162;57.568;25.814;2022-11-09T01:41:23;39.03;;;21.02;;
59649;SDS011;46162;57.568;25.814;2022-11-09T01:44:07;43.63;;;20.55;;
59649;SDS011;46162;57.568;25.814;2022-11-09T01:46:43;42.63;;;21.25;;
59649;SDS011;46162;57.568;25.814;2022-11-09T01:49:18;43.88;;;22.17;;
59649;SDS011;46162;57.568;25.814;2022-11-09T01:51:59;46.20;;;21.40;;
59649;SDS011;46162;57.568;25.814;2022-11-09T01:54:35;42.55;;;21.17;;
59649;SDS011;46162;57.568;25.814;2022-11-09T01:57:07;43.33;;;20.58;;
59649;SDS011;46162;57.568;25.814;2022-11-09T01:59:41;53.17;;;21.05;;
59649;SDS011;46162;57.568;25.814;2022-11-09T02:02:15;37.00;;;20.48;;
59649;SDS011;46162;57.568;25.814;2022-11-09T02:04:46;42.75;;;20.73;;
59649;SDS011;46162;57.568;25.814;2022-11-09T02:07:19;40.70;;;20.50;;
59649;SDS011;46162;57.568;25.814;2022-11-09T02:09:52;46.20;;;20.08;;
59649;SDS011;46162;57.568;25.814;2022-11-09T02:12:28;40.05;;;19.15;;
59649;SDS011;46162;57.568;25.814;2022-11-09T02:15:00;39.90;;;18.23;;
59649;SDS011;46162;57.568;25.814;2022-11-09T02:17:30;40.17;;;19.50;;
59649;SDS011;46162;57.568;25.814;2022-11-09T02:20:00;43.20;;;19.45;;
59649;SDS011;46162;57.568;25.814;2022-11-09T02:22:30;39.55;;;19.67;;
59649;SDS011;46162;57.568;25.814;2022-11-09T02:25:01;51.22;;;21.10;;
59649;SDS011;46162;57.568;25.814;2022-11-09T02:27:29;45.80;;;20.70;;
59649;SDS011;46162;57.568;25.814;2022-11-09T02:29:59;42.20;;;19.67;;
59649;SDS011;46162;57.568;25.814;2022-11-09T02:32:29;39.13;;;19.57;;
59649;SDS011;46162;57.568;25.814;2022-11-09T02:34:59;38.30;;;19.17;;
59649;SDS011;46162;57.568;25.814;2022-11-09T02:37:28;42.33;;;19.67;;
59649;SDS011;46162;57.568;25.814;2022-11-09T02:40:00;44.83;;;19.60;;
59649;SDS011;46162;57.568;25.814;2022-11-09T02:42:33;35.67;;;19.85;;
59649;SDS011;46162;57.568;25.814;2022-11-09T02:45:02;35.20;;;18.20;;
59649;SDS011;46162;57.568;25.814;2022-11-09T02:47:32;40.47;;;19.25;;
59649;SDS011;46162;57.568;25.814;2022-11-09T02:50:00;42.60;;;18.77;;
59649;SDS011;46162;57.568;25.814;2022-11-09T02:52:29;33.35;;;18.38;;
59649;SDS011;46162;57.568;25.814;2022-11-09T02:54:58;39.88;;;19.40;;
59649;SDS011;46162;57.568;25.814;2022-11-09T02:57:28;41.97;;;19.52;;
59649;SDS011;46162;57.568;25.814;2022-11-09T02:59:58;33.90;;;18.48;;
59649;SDS011;46162;57.568;25.814;2022-11-09T03:02:28;39.65;;;18.88;;
59649;SDS011;46162;57.568;25.814;2022-11-09T03:05:01;32.83;;;18.17;;
59649;SDS011;46162;57.568;25.814;2022-11-09T03:07:29;40.33;;;18.98;;
59649;SDS011;46162;57.568;25.814;2022-11-09T03:10:00;41.47;;;18.10;;
59649;SDS011;46162;57.568;25.814;2022-11-09T03:12:29;30.10;;;17.15;;
59649;SDS011;46162;57.568;25.814;2022-11-09T03:15:05;38.90;;;17.00;;
59649;SDS011;46162;57.568;25.814;2022-11-09T03:17:39;38.58;;;17.23;;
59649;SDS011;46162;57.568;25.814;2022-11-09T03:20:08;31.98;;;16.35;;
59649;SDS011;46162;57.568;25.814;2022-11-09T03:22:38;38.53;;;17.92;;
59649;SDS011;46162;57.568;25.814;2022-11-09T03:25:09;32.03;;;16.85;;
59649;SDS011;46162;57.568;25.814;2022-11-09T03:27:38;37.75;;;18.10;;
59649;SDS011;46162;57.568;25.814;2022-11-09T03:30:08;40.78;;;17.33;;
59649;SDS011;46162;57.568;25.814;2022-11-09T03:32:38;29.55;;;17.13;;
59649;SDS011;46162;57.568;25.814;2022-11-09T03:35:07;33.05;;;15.13;;
59649;SDS011;46162;57.568;25.814;2022-11-09T03:37:37;31.15;;;16.38;;
59649;SDS011;46162;57.568;25.814;2022-11-09T03:40:06;31.20;;;16.42;;
59649;SDS011;46162;57.568;25.814;2022-11-09T03:42:37;34.45;;;15.73;;
59649;SDS011;46162;57.568;25.814;2022-11-09T03:45:10;33.28;;;17.40;;
59649;SDS011;46162;57.568;25.814;2022-11-09T03:47:40;38.92;;;17.27;;
59649;SDS011;46162;57.568;25.814;2022-11-09T03:50:09;33.65;;;16.77;;
59649;SDS011;46162;57.568;25.814;2022-11-09T03:52:38;36.80;;;17.00;;
59649;SDS011;46162;57.568;25.814;2022-11-09T03:55:08;36.47;;;17.02;;
59649;SDS011;46162;57.568;25.814;2022-11-09T03:57:38;37.38;;;17.15;;
59649;SDS011;46162;57.568;25.814;2022-11-09T04:00:08;35.05;;;17.60;;
59649;SDS011;46162;57.568;25.814;2022-11-09T04:02:37;35.78;;;18.02;;
59649;SDS011;46162;57.568;25.814;2022-11-09T04:05:09;37.88;;;18.10;;
59649;SDS011;46162;57.568;25.814;2022-11-09T04:07:38;31.67;;;17.65;;
59649;SDS011;46162;57.568;25.814;2022-11-09T04:10:07;40.83;;;16.85;;
59649;SDS011;46162;57.568;25.814;2022-11-09T04:12:37;34.85;;;17.27;;
59649;SDS011;46162;57.568;25.814;2022-11-09T04:15:07;35.33;;;17.17;;
59649;SDS011;46162;57.568;25.814;2022-11-09T04:17:37;28.40;;;17.15;;
59649;SDS011;46162;57.568;25.814;2022-11-09T04:20:06;32.67;;;18.35;;
59649;SDS011;46162;57.568;25.814;2022-11-09T04:22:36;35.90;;;18.00;;
59649;SDS011;46162;57.568;25.814;2022-11-09T04:25:05;36.13;;;19.83;;
59649;SDS011;46162;57.568;25.814;2022-11-09T04:27:34;34.40;;;18.63;;
59649;SDS011;46162;57.568;25.814;2022-11-09T04:30:05;35.05;;;17.75;;
59649;SDS011;46162;57.568;25.814;2022-11-09T04:32:35;31.90;;;18.15;;
59649;SDS011;46162;57.568;25.814;2022-11-09T04:35:04;36.15;;;19.02;;
59649;SDS011;46162;57.568;25.814;2022-11-09T04:37:34;36.80;;;18.23;;
59649;SDS011;46162;57.568;25.814;2022-11-09T04:40:03;37.42;;;20.15;;
59649;SDS011;46162;57.568;25.814;2022-11-09T04:42:32;38.47;;;21.27;;
59649;SDS011;46162;57.568;25.814;2022-11-09T04:45:01;35.22;;;20.80;;
59649;SDS011;46162;57.568;25.814;2022-11-09T04:47:31;40.60;;;20.70;;
59649;SDS011;46162;57.568;25.814;2022-11-09T04:50:00;43.90;;;22.38;;
59649;SDS011;46162;57.568;25.814;2022-11-09T04:52:29;42.80;;;22.80;;
59649;SDS011;46162;57.568;25.814;2022-11-09T04:54:58;39.58;;;21.77;;
59649;SDS011;46162;57.568;25.814;2022-11-09T04:57:27;38.92;;;24.05;;
59649;SDS011;46162;57.568;25.814;2022-11-09T04:59:56;44.70;;;23.77;;
59649;SDS011;46162;57.568;25.814;2022-11-09T05:02:25;45.67;;;22.77;;
59649;SDS011;46162;57.568;25.814;2022-11-09T05:04:55;44.80;;;23.98;;
59649;SDS011;46162;57.568;25.814;2022-11-09T05:07:24;45.90;;;23.92;;
59649;SDS011;46162;57.568;25.814;2022-11-09T05:09:53;39.17;;;23.63;;
59649;SDS011;46162;57.568;25.814;2022-11-09T05:12:22;43.75;;;25.38;;
59649;SDS011;46162;57.568;25.814;2022-11-09T05:14:51;46.40;;;24.90;;
59649;SDS011;46162;57.568;25.814;2022-11-09T05:17:20;45.05;;;25.23;;
59649;SDS011;46162;57.568;25.814;2022-11-09T05:19:48;44.88;;;24.90;;
59649;SDS011;46162;57.568;25.814;2022-11-09T05:22:23;49.15;;;25.10;;
59649;SDS011;46162;57.568;25.814;2022-11-09T05:25:09;45.40;;;26.02;;
59649;SDS011;46162;57.568;25.814;2022-11-09T05:27:38;46.78;;;25.30;;
59649;SDS011;46162;57.568;25.814;2022-11-09T05:30:07;43.47;;;25.08;;
59649;SDS011;46162;57.568;25.814;2022-11-09T05:32:37;47.85;;;24.60;;
59649;SDS011;46162;57.568;25.814;2022-11-09T05:35:06;50.75;;;25.52;;
59649;SDS011;46162;57.568;25.814;2022-11-09T05:37:38;45.50;;;25.50;;
59649;SDS011;46162;57.568;25.814;2022-11-09T05:40:07;50.88;;;26.13;;
59649;SDS011;46162;57.568;25.814;2022-11-09T05:42:37;46.57;;;25.47;;
59649;SDS011;46162;57.568;25.814;2022-11-09T05:45:08;46.47;;;25.25;;
59649;SDS011;46162;57.568;25.814;2022-11-09T05:47:58;52.33;;;25.50;;
59649;SDS011;46162;57.568;25.814;2022-11-09T05:50:30;49.45;;;24.67;;
59649;SDS011;46162;57.568;25.814;2022-11-09T05:53:18;43.60;;;23.95;;
59649;SDS011;46162;57.568;25.814;2022-11-09T05:55:47;44.30;;;24.52;;
59649;SDS011;46162;57.568;25.814;2022-11-09T05:58:16;41.60;;;24.40;;
59649;SDS011;46162;57.568;25.814;2022-11-09T06:00:45;48.17;;;25.02;;
59649;SDS011;46162;57.568;25.814;2022-11-09T06:03:13;44.58;;;24.80;;
59649;SDS011;46162;57.568;25.814;2022-11-09T06:05:42;43.60;;;23.65;;
59649;SDS011;46162;57.568;25.814;2022-11-09T06:08:12;41.33;;;23.30;;
59649;SDS011;46162;57.568;25.814;2022-11-09T06:10:43;41.60;;;23.25;;
59649;SDS011;46162;57.568;25.814;2022-11-09T06:13:12;41.72;;;22.67;;
59649;SDS011;46162;57.568;25.814;2022-11-09T06:15:41;42.67;;;23.63;;
59649;SDS011;46162;57.568;25.814;2022-11-09T06:18:10;43.58;;;22.52;;
59649;SDS011;46162;57.568;25.814;2022-11-09T06:20:39;40.35;;;21.92;;
59649;SDS011;46162;57.568;25.814;2022-11-09T06:23:08;36.60;;;21.58;;
59649;SDS011;46162;57.568;25.814;2022-11-09T06:25:38;35.85;;;20.00;;
59649;SDS011;46162;57.568;25.814;2022-11-09T06:28:08;40.55;;;20.10;;
59649;SDS011;46162;57.568;25.814;2022-11-09T06:30:37;45.87;;;20.43;;
59649;SDS011;46162;57.568;25.814;2022-11-09T06:33:05;41.58;;;20.38;;
59649;SDS011;46162;57.568;25.814;2022-11-09T06:35:34;36.92;;;21.27;;
59649;SDS011;46162;57.568;25.814;2022-11-09T06:38:03;33.25;;;20.00;;
59649;SDS011;46162;57.568;25.814;2022-11-09T06:40:32;33.92;;;19.05;;
59649;SDS011;46162;57.568;25.814;2022-11-09T06:43:03;38.40;;;20.63;;
59649;SDS011;46162;57.568;25.814;2022-11-09T06:45:33;37.38;;;19.50;;
59649;SDS011;46162;57.568;25.814;2022-11-09T06:48:02;37.20;;;21.15;;
59649;SDS011;46162;57.568;25.814;2022-11-09T06:50:32;34.53;;;21.15;;
59649;SDS011;46162;57.568;25.814;2022-11-09T06:53:01;41.03;;;21.02;;
59649;SDS011;46162;57.568;25.814;2022-11-09T06:55:32;39.20;;;21.33;;
59649;SDS011;46162;57.568;25.814;2022-11-09T06:58:04;36.60;;;20.83;;
59649;SDS011;46162;57.568;25.814;2022-11-09T07:00:38;38.97;;;21.05;;
59649;SDS011;46162;57.568;25.814;2022-11-09T07:03:06;36.03;;;21.13;;
59649;SDS011;46162;57.568;25.814;2022-11-09T07:05:36;34.42;;;21.17;;
59649;SDS011;46162;57.568;25.814;2022-11-09T07:08:06;38.15;;;21.20;;
59649;SDS011;46162;57.568;25.814;2022-11-09T07:10:35;31.30;;;20.25;;
59649;SDS011;46162;57.568;25.814;2022-11-09T07:13:04;30.73;;;19.13;;
59649;SDS011;46162;57.568;25.814;2022-11-09T07:15:34;35.65;;;20.27;;
59649;SDS011;46162;57.568;25.814;2022-11-09T07:18:09;31.42;;;19.70;;
59649;SDS011;46162;57.568;25.814;2022-11-09T07:20:39;33.80;;;20.52;;
59649;SDS011;46162;57.568;25.814;2022-11-09T07:23:07;38.13;;;21.23;;
59649;SDS011;46162;57.568;25.814;2022-11-09T07:25:36;31.95;;;19.92;;
59649;SDS011;46162;57.568;25.814;2022-11-09T07:28:05;29.42;;;19.45;;
59649;SDS011;46162;57.568;25.814;2022-11-09T07:30:35;30.20;;;19.98;;
59649;SDS011;46162;57.568;25.814;2022-11-09T07:33:10;32.33;;;20.40;;
59649;SDS011;46162;57.568;25.814;2022-11-09T07:35:41;30.15;;;19.85;;
59649;SDS011;46162;57.568;25.814;2022-11-09T07:38:10;30.73;;;20.77;;
59649;SDS011;46162;57.568;25.814;2022-11-09T07:40:39;33.67;;;19.52;;
59649;SDS011;46162;57.568;25.814;2022-11-09T07:43:08;36.75;;;20.63;;
59649;SDS011;46162;57.568;25.814;2022-11-09T07:45:39;32.97;;;20.40;;
59649;SDS011;46162;57.568;25.814;2022-11-09T07:48:09;32.10;;;20.48;;
59649;SDS011;46162;57.568;25.814;2022-11-09T07:50:39;35.47;;;20.98;;
59649;SDS011;46162;57.568;25.814;2022-11-09T07:53:09;30.45;;;20.38;;
59649;SDS011;46162;57.568;25.814;2022-11-09T07:55:40;34.60;;;20.25;;
59649;SDS011;46162;57.568;25.814;2022-11-09T07:58:10;28.23;;;18.10;;
59649;SDS011;46162;57.568;25.814;2022-11-09T08:00:41;39.38;;;20.33;;
59649;SDS011;46162;57.568;25.814;2022-11-09T08:03:12;38.23;;;20.40;;
59649;SDS011;46162;57.568;25.814;2022-11-09T08:05:41;42.13;;;19.77;;
59649;SDS011;46162;57.568;25.814;2022-11-09T08:08:10;49.42;;;20.52;;
59649;SDS011;46162;57.568;25.814;2022-11-09T08:10:41;33.45;;;19.77;;
59649;SDS011;46162;57.568;25.814;2022-11-09T08:13:16;42.22;;;19.90;;
59649;SDS011;46162;57.568;25.814;2022-11-09T08:15:46;39.08;;;21.65;;
59649;SDS011;46162;57.568;25.814;2022-11-09T08:18:17;42.30;;;21.85;;
59649;SDS011;46162;57.568;25.814;2022-11-09T08:20:48;38.55;;;22.85;;
59649;SDS011;46162;57.568;25.814;2022-11-09T08:23:18;39.60;;;22.08;;
59649;SDS011;46162;57.568;25.814;2022-11-09T08:25:48;33.45;;;22.20;;
59649;SDS011;46162;57.568;25.814;2022-11-09T08:28:17;33.80;;;23.30;;
59649;SDS011;46162;57.568;25.814;2022-11-09T08:30:53;35.42;;;22.30;;
59649;SDS011;46162;57.568;25.814;2022-11-09T08:33:25;61.08;;;24.08;;
59649;SDS011;46162;57.568;25.814;2022-11-09T08:35:55;63.22;;;24.38;;
59649;SDS011;46162;57.568;25.814;2022-11-09T08:38:24;45.33;;;24.17;;
59649;SDS011;46162;57.568;25.814;2022-11-09T08:40:55;40.00;;;25.25;;
59649;SDS011;46162;57.568;25.814;2022-11-09T08:43:24;47.22;;;24.50;;
59649;SDS011;46162;57.568;25.814;2022-11-09T08:45:53;40.75;;;25.67;;
59649;SDS011;46162;57.568;25.814;2022-11-09T08:48:22;36.97;;;24.77;;
59649;SDS011;46162;57.568;25.814;2022-11-09T08:50:53;42.25;;;25.45;;
59649;SDS011;46162;57.568;25.814;2022-11-09T08:53:22;39.50;;;24.13;;
59649;SDS011;46162;57.568;25.814;2022-11-09T08:55:52;33.43;;;25.00;;
59649;SDS011;46162;57.568;25.814;2022-11-09T08:58:21;39.10;;;25.50;;
59649;SDS011;46162;57.568;25.814;2022-11-09T09:00:50;38.88;;;24.05;;
59649;SDS011;46162;57.568;25.814;2022-11-09T09:03:19;36.63;;;25.35;;
59649;SDS011;46162;57.568;25.814;2022-11-09T09:05:48;37.92;;;24.27;;
59649;SDS011;46162;57.568;25.814;2022-11-09T09:08:18;31.83;;;22.83;;
59649;SDS011;46162;57.568;25.814;2022-11-09T09:10:49;33.55;;;22.75;;
59649;SDS011;46162;57.568;25.814;2022-11-09T09:13:18;32.55;;;22.35;;
59649;SDS011;46162;57.568;25.814;2022-11-09T09:15:48;35.30;;;23.08;;
59649;SDS011;46162;57.568;25.814;2022-11-09T09:18:17;31.73;;;21.45;;
59649;SDS011;46162;57.568;25.814;2022-11-09T09:20:46;37.28;;;22.10;;
59649;SDS011;46162;57.568;25.814;2022-11-09T09:23:15;31.10;;;20.88;;
59649;SDS011;46162;57.568;25.814;2022-11-09T09:25:45;33.72;;;20.55;;
59649;SDS011;46162;57.568;25.814;2022-11-09T09:28:14;29.45;;;20.02;;
59649;SDS011;46162;57.568;25.814;2022-11-09T09:30:43;32.20;;;18.75;;
59649;SDS011;46162;57.568;25.814;2022-11-09T09:33:11;28.80;;;18.45;;
59649;SDS011;46162;57.568;25.814;2022-11-09T09:35:41;29.80;;;18.50;;
59649;SDS011;46162;57.568;25.814;2022-11-09T09:38:10;28.67;;;17.58;;
59649;SDS011;46162;57.568;25.814;2022-11-09T09:40:40;27.13;;;17.67;;
59649;SDS011;46162;57.568;25.814;2022-11-09T09:43:15;24.63;;;15.60;;
59649;SDS011;46162;57.568;25.814;2022-11-09T09:45:52;21.95;;;15.80;;
59649;SDS011;46162;57.568;25.814;2022-11-09T09:48:23;26.27;;;14.63;;
59649;SDS011;46162;57.568;25.814;2022-11-09T09:50:58;24.60;;;14.90;;
59649;SDS011;46162;57.568;25.814;2022-11-09T09:53:35;26.20;;;14.00;;
59649;SDS011;46162;57.568;25.814;2022-11-09T09:56:09;24.33;;;12.55;;
59649;SDS011;46162;57.568;25.814;2022-11-09T09:58:43;21.88;;;12.18;;
59649;SDS011;46162;57.568;25.814;2022-11-09T10:01:16;20.20;;;11.85;;
59649;SDS011;46162;57.568;25.814;2022-11-09T10:03:48;19.48;;;11.25;;
59649;SDS011;46162;57.568;25.814;2022-11-09T10:06:27;19.65;;;10.90;;
59649;SDS011;46162;57.568;25.814;2022-11-09T10:09:10;18.23;;;10.77;;
59649;SDS011;46162;57.568;25.814;2022-11-09T10:11:52;19.42;;;8.93;;
59649;SDS011;46162;57.568;25.814;2022-11-09T10:14:36;14.32;;;8.48;;
59649;SDS011;46162;57.568;25.814;2022-11-09T10:17:18;18.58;;;8.75;;
59649;SDS011;46162;57.568;25.814;2022-11-09T10:20:02;15.52;;;8.00;;
59649;SDS011;46162;57.568;25.814;2022-11-09T10:22:57;16.08;;;8.10;;
59649;SDS011;46162;57.568;25.814;2022-11-09T10:25:39;15.73;;;8.25;;
59649;SDS011;46162;57.568;25.814;2022-11-09T10:28:32;14.95;;;7.63;;
59649;SDS011;46162;57.568;25.814;2022-11-09T10:31:31;18.13;;;7.43;;
59649;SDS011;46162;57.568;25.814;2022-11-09T10:34:11;15.15;;;7.35;;
59649;SDS011;46162;57.568;25.814;2022-11-09T10:36:47;14.93;;;7.10;;
59649;SDS011;46162;57.568;25.814;2022-11-09T10:39:21;14.13;;;7.20;;
59649;SDS011;46162;57.568;25.814;2022-11-09T10:42:10;16.23;;;7.40;;
59649;SDS011;46162;57.568;25.814;2022-11-09T10:44:58;20.40;;;7.43;;
59649;SDS011;46162;57.568;25.814;2022-11-09T10:48:09;16.45;;;7.20;;
59649;SDS011;46162;57.568;25.814;2022-11-09T10:50:58;16.92;;;7.13;;
59649;SDS011;46162;57.568;25.814;2022-11-09T10:53:46;15.27;;;7.13;;
59649;SDS011;46162;57.568;25.814;2022-11-09T10:56:33;13.35;;;6.47;;
59649;SDS011;46162;57.568;25.814;2022-11-09T10:59:49;25.25;;;7.07;;
59649;SDS011;46162;57.568;25.814;2022-11-09T11:02:40;18.52;;;7.05;;
59649;SDS011;46162;57.568;25.814;2022-11-09T11:05:33;18.10;;;7.40;;
59649;SDS011;46162;57.568;25.814;2022-11-09T11:08:22;14.85;;;6.65;;
59649;SDS011;46162;57.568;25.814;2022-11-09T11:11:21;16.05;;;7.10;;
59649;SDS011;46162;57.568;25.814;2022-11-09T11:14:21;15.10;;;6.97;;
59649;SDS011;46162;57.568;25.814;2022-11-09T11:17:22;18.80;;;6.53;;
59649;SDS011;46162;57.568;25.814;2022-11-09T11:20:25;12.20;;;6.50;;
59649;SDS011;46162;57.568;25.814;2022-11-09T11:23:16;12.63;;;6.70;;
59649;SDS011;46162;57.568;25.814;2022-11-09T11:32:28;13.20;;;6.68;;
59649;SDS011;46162;57.568;25.814;2022-11-09T11:35:16;12.40;;;6.47;;
59649;SDS011;46162;57.568;25.814;2022-11-09T11:38:23;14.40;;;6.72;;
59649;SDS011;46162;57.568;25.814;2022-11-09T11:44:52;17.55;;;7.22;;
59649;SDS011;46162;57.568;25.814;2022-11-09T11:48:28;14.68;;;6.93;;
59649;SDS011;46162;57.568;25.814;2022-11-09T11:51:28;16.23;;;7.07;;
59649;SDS011;46162;57.568;25.814;2022-11-09T11:54:24;17.50;;;7.22;;
59649;SDS011;46162;57.568;25.814;2022-11-09T11:57:22;13.05;;;6.97;;
59649;SDS011;46162;57.568;25.814;2022-11-09T12:00:17;17.58;;;7.45;;
59649;SDS011;46162;57.568;25.814;2022-11-09T12:03:10;12.98;;;6.65;;
59649;SDS011;46162;57.568;25.814;2022-11-09T12:09:48;15.73;;;6.85;;
59649;SDS011;46162;57.568;25.814;2022-11-09T12:12:51;17.50;;;7.03;;
59649;SDS011;46162;57.568;25.814;2022-11-09T12:15:50;14.43;;;6.70;;
59649;SDS011;46162;57.568;25.814;2022-11-09T12:18:47;16.75;;;7.07;;
59649;SDS011;46162;57.568;25.814;2022-11-09T12:21:43;11.48;;;6.47;;
59649;SDS011;46162;57.568;25.814;2022-11-09T12:24:38;15.30;;;6.43;;
59649;SDS011;46162;57.568;25.814;2022-11-09T12:31:07;13.90;;;6.88;;
59649;SDS011;46162;57.568;25.814;2022-11-09T12:34:06;13.35;;;6.68;;
59649;SDS011;46162;57.568;25.814;2022-11-09T12:37:02;15.02;;;7.13;;
59649;SDS011;46162;57.568;25.814;2022-11-09T12:39:56;12.80;;;6.90;;
59649;SDS011;46162;57.568;25.814;2022-11-09T12:42:52;15.02;;;7.28;;
59649;SDS011;46162;57.568;25.814;2022-11-09T12:45:44;18.20;;;6.90;;
59649;SDS011;46162;57.568;25.814;2022-11-09T12:48:33;20.40;;;7.50;;
59649;SDS011;46162;57.568;25.814;2022-11-09T12:51:20;18.17;;;7.05;;
59649;SDS011;46162;57.568;25.814;2022-11-09T12:54:08;16.08;;;7.43;;
59649;SDS011;46162;57.568;25.814;2022-11-09T12:56:57;13.80;;;7.85;;
59649;SDS011;46162;57.568;25.814;2022-11-09T12:59:49;16.88;;;7.60;;
59649;SDS011;46162;57.568;25.814;2022-11-09T13:02:40;16.08;;;7.95;;
59649;SDS011;46162;57.568;25.814;2022-11-09T13:05:39;14.20;;;7.32;;
59649;SDS011;46162;57.568;25.814;2022-11-09T13:08:27;13.40;;;6.85;;
59649;SDS011;46162;57.568;25.814;2022-11-09T13:11:20;13.30;;;7.18;;
59649;SDS011;46162;57.568;25.814;2022-11-09T13:14:31;14.02;;;6.70;;
59649;SDS011;46162;57.568;25.814;2022-11-09T13:20:49;13.98;;;6.82;;
59649;SDS011;46162;57.568;25.814;2022-11-09T13:23:41;21.77;;;7.30;;
59649;SDS011;46162;57.568;25.814;2022-11-09T13:26:58;12.52;;;6.72;;
59649;SDS011;46162;57.568;25.814;2022-11-09T13:29:47;13.25;;;6.82;;
59649;SDS011;46162;57.568;25.814;2022-11-09T13:32:42;14.80;;;6.18;;
59649;SDS011;46162;57.568;25.814;2022-11-09T13:42:27;12.30;;;5.72;;
59649;SDS011;46162;57.568;25.814;2022-11-09T13:45:23;13.65;;;6.00;;
59649;SDS011;46162;57.568;25.814;2022-11-09T13:51:40;14.55;;;7.35;;
59649;SDS011;46162;57.568;25.814;2022-11-09T13:54:31;12.70;;;7.03;;
59649;SDS011;46162;57.568;25.814;2022-11-09T13:57:19;16.75;;;7.35;;
59649;SDS011;46162;57.568;25.814;2022-11-09T14:00:13;17.70;;;7.35;;
59649;SDS011;46162;57.568;25.814;2022-11-09T14:03:15;14.63;;;6.63;;
59649;SDS011;46162;57.568;25.814;2022-11-09T14:06:04;14.73;;;6.50;;
59649;SDS011;46162;57.568;25.814;2022-11-09T14:08:53;11.25;;;6.90;;
59649;SDS011;46162;57.568;25.814;2022-11-09T14:11:49;13.75;;;6.40;;
59649;SDS011;46162;57.568;25.814;2022-11-09T14:15:04;14.88;;;6.20;;
59649;SDS011;46162;57.568;25.814;2022-11-09T14:18:06;15.50;;;7.68;;
59649;SDS011;46162;57.568;25.814;2022-11-09T14:21:06;13.90;;;6.55;;
59649;SDS011;46162;57.568;25.814;2022-11-09T14:24:05;12.57;;;6.70;;
59649;SDS011;46162;57.568;25.814;2022-11-09T14:27:11;19.15;;;6.82;;
59649;SDS011;46162;57.568;25.814;2022-11-09T14:30:01;12.13;;;6.30;;
59649;SDS011;46162;57.568;25.814;2022-11-09T14:32:48;13.07;;;6.38;;
59649;SDS011;46162;57.568;25.814;2022-11-09T14:35:38;12.68;;;6.28;;
59649;SDS011;46162;57.568;25.814;2022-11-09T14:38:26;18.10;;;7.78;;
59649;SDS011;46162;57.568;25.814;2022-11-09T14:41:19;15.52;;;7.80;;
59649;SDS011;46162;57.568;25.814;2022-11-09T14:47:01;16.63;;;7.72;;
59649;SDS011;46162;57.568;25.814;2022-11-09T14:49:49;18.40;;;8.05;;
59649;SDS011;46162;57.568;25.814;2022-11-09T14:52:37;19.35;;;10.07;;
59649;SDS011;46162;57.568;25.814;2022-11-09T14:55:26;17.85;;;9.02;;
59649;SDS011;46162;57.568;25.814;2022-11-09T14:58:16;21.65;;;9.75;;
59649;SDS011;46162;57.568;25.814;2022-11-09T15:01:14;20.45;;;10.32;;
59649;SDS011;46162;57.568;25.814;2022-11-09T15:04:10;19.97;;;11.27;;
59649;SDS011;46162;57.568;25.814;2022-11-09T15:07:02;22.42;;;10.70;;
59649;SDS011;46162;57.568;25.814;2022-11-09T15:09:51;22.20;;;11.52;;
59649;SDS011;46162;57.568;25.814;2022-11-09T15:12:45;23.63;;;11.38;;
59649;SDS011;46162;57.568;25.814;2022-11-09T15:15:36;20.75;;;11.40;;
59649;SDS011;46162;57.568;25.814;2022-11-09T15:18:24;21.17;;;11.77;;
59649;SDS011;46162;57.568;25.814;2022-11-09T15:21:19;21.00;;;11.15;;
59649;SDS011;46162;57.568;25.814;2022-11-09T15:24:20;21.20;;;11.60;;
59649;SDS011;46162;57.568;25.814;2022-11-09T15:30:30;18.58;;;10.68;;
59649;SDS011;46162;57.568;25.814;2022-11-09T15:33:25;21.17;;;11.82;;
59649;SDS011;46162;57.568;25.814;2022-11-09T15:36:22;21.30;;;11.77;;
59649;SDS011;46162;57.568;25.814;2022-11-09T15:39:17;23.80;;;11.80;;
59649;SDS011;46162;57.568;25.814;2022-11-09T15:42:07;21.05;;;11.75;;
59649;SDS011;46162;57.568;25.814;2022-11-09T15:44:58;27.58;;;12.82;;
59649;SDS011;46162;57.568;25.814;2022-11-09T15:47:49;25.90;;;12.07;;